Time;durP1;ratioP1;P1;durP2;ratioP2;P2;SDS_P1;SDS_P2;PMS_P1;PMS_P2;Temp;Humidity;BMP_temperature;BMP_pressure;BME280_temperature;BME280_humidity;BME280_pressure;Samples;Min_cycle;Max_cycle;Signal;HPM_P1;HPM_P2
2024/03/13 00:00:10;;;;;;;16.35;8.35;;;;;;;6.27;100.00;98869.53;5072986;28;20099;-57
2024/03/13 00:02:37;;;;;;;17.55;7.65;;;;;;;6.25;100.00;98867.00;5068738;28;20024;-57
2024/03/13 00:05:04;;;;;;;19.00;7.97;;;;;;;6.23;100.00;98874.41;5072852;28;20028;-57
2024/03/13 00:07:31;;;;;;;18.98;7.63;;;;;;;6.19;100.00;98862.34;5071616;28;20075;-57
2024/03/13 00:09:57;;;;;;;18.25;7.65;;;;;;;6.20;100.00;98864.00;5073409;28;20016;-57
2024/03/13 00:12:24;;;;;;;18.73;7.80;;;;;;;6.26;100.00;98863.31;5071390;28;20086;-57
2024/03/13 00:14:51;;;;;;;19.10;7.70;;;;;;;6.25;100.00;98860.78;5068391;28;20500;-57
2024/03/13 00:17:20;;;;;;;18.08;8.52;;;;;;;6.28;100.00;98858.59;5070001;28;20516;-57
2024/03/13 00:19:49;;;;;;;;;;;;;;;6.30;100.00;98858.44;5067296;28;20025;-57
2024/03/13 00:22:18;;;;;;;;;;;;;;;6.27;100.00;98850.72;5082998;28;19919;-58
2024/03/13 00:24:45;;;;;;;;;;;;;;;6.30;100.00;98850.38;5065433;28;19912;-57
2024/03/13 00:27:12;;;;;;;17.40;7.93;;;;;;;6.21;100.00;98833.47;5072368;28;19909;-57
2024/03/13 00:29:38;;;;;;;21.05;8.10;;;;;;;6.32;100.00;98851.88;5067618;28;20032;-57
2024/03/13 00:32:07;;;;;;;19.30;7.97;;;;;;;6.33;100.00;98841.94;5071137;28;20031;-57
2024/03/13 00:34:32;;;;;;;18.08;7.97;;;;;;;6.33;100.00;98839.25;5069632;28;20107;-57
2024/03/13 00:37:00;;;;;;;20.30;8.50;;;;;;;6.29;100.00;98841.47;5071706;28;20116;-57
2024/03/13 00:39:26;;;;;;;18.75;8.32;;;;;;;6.32;100.00;98845.66;5065883;28;20020;-57
2024/03/13 00:41:52;;;;;;;21.63;8.57;;;;;;;6.26;100.00;98832.91;5071017;28;20020;-57
2024/03/13 00:44:17;;;;;;;18.00;7.25;;;;;;;6.28;100.00;98834.41;5070574;28;20361;-57
2024/03/13 00:46:43;;;;;;;15.07;6.93;;;;;;;6.26;100.00;98831.09;5071632;28;20032;-57
2024/03/13 00:49:09;;;;;;;15.75;6.63;;;;;;;6.21;100.00;98832.59;5072798;28;20027;-57
2024/03/13 00:51:35;;;;;;;14.38;6.63;;;;;;;6.19;100.00;98824.72;5072082;28;20487;-57
2024/03/13 00:54:04;;;;;;;15.05;6.57;;;;;;;6.21;100.00;98820.03;5066596;28;20032;-57
2024/03/13 00:56:33;;;;;;;;;;;;;;;6.22;100.00;98823.53;5065592;28;20024;-57
2024/03/13 00:58:59;;;;;;;13.60;6.40;;;;;;;6.15;100.00;98818.00;5070305;28;19958;-57
2024/03/13 01:01:25;;;;;;;16.00;6.35;;;;;;;6.14;100.00;98827.94;5063550;28;20038;-57
2024/03/13 01:03:57;;;;;;;17.13;6.90;;;;;;;6.18;100.00;98816.81;5072089;28;20356;-57
2024/03/13 01:06:28;;;;;;;14.75;6.15;;;;;;;6.16;100.00;98817.03;5071018;28;20392;-57
2024/03/13 01:08:57;;;;;;;14.57;6.80;;;;;;;6.17;100.00;98809.78;5070168;28;20035;-58
2024/03/13 01:11:24;;;;;;;11.63;5.72;;;;;;;6.14;100.00;98816.34;5071153;28;20036;-57
2024/03/13 01:13:50;;;;;;;13.57;4.97;;;;;;;6.07;100.00;98805.47;5071171;28;20074;-57
2024/03/13 01:16:17;;;;;;;12.48;5.40;;;;;;;6.11;100.00;98814.84;5072491;28;20029;-57
2024/03/13 01:18:43;;;;;;;10.65;4.45;;;;;;;6.10;100.00;98815.00;5068737;28;20497;-57
2024/03/13 01:21:11;;;;;;;10.38;4.88;;;;;;;6.08;100.00;98817.91;5070015;28;20100;-57
2024/03/13 01:23:42;;;;;;;13.10;5.22;;;;;;;6.04;100.00;98810.34;5069193;28;20028;-57
2024/03/13 01:26:08;;;;;;;9.25;4.65;;;;;;;6.01;100.00;98822.28;5069328;28;20388;-57
2024/03/13 01:28:38;;;;;;;9.55;4.80;;;;;;;6.09;100.00;98818.72;5068830;28;20033;-57
2024/03/13 01:31:07;;;;;;;11.60;5.07;;;;;;;6.09;100.00;98824.09;5066395;28;20107;-57
2024/03/13 01:33:38;;;;;;;;;;;;;;;6.06;100.00;98824.44;5072561;28;20065;-57
2024/03/13 01:36:08;;;;;;;9.20;4.68;;;;;;;6.03;100.00;98816.75;5068871;28;20002;-57
2024/03/13 01:38:33;;;;;;;8.13;3.60;;;;;;;6.04;100.00;98818.41;5070281;28;20056;-57
2024/03/13 01:55:24;;;;;;;7.88;3.33;;;;;;;5.98;100.00;98813.75;5076366;28;20035;-57
2024/03/13 02:03:14;;;;;;;7.55;2.83;;;;;;;5.93;100.00;98809.72;5076437;28;20039;-57
2024/03/13 02:05:42;;;;;;;9.57;2.53;;;;;;;5.93;100.00;98809.72;5071671;28;20082;-57
2024/03/13 02:08:10;;;;;;;5.22;2.63;;;;;;;5.89;100.00;98805.69;5070667;28;20027;-57
2024/03/13 02:10:36;;;;;;;5.18;2.00;;;;;;;5.92;100.00;98802.66;5069076;28;20038;-57
2024/03/13 02:13:03;;;;;;;4.45;2.13;;;;;;;5.87;100.00;98806.88;5075032;28;20437;-57
2024/03/13 02:15:28;;;;;;;4.45;2.35;;;;;;;5.86;100.00;98795.28;5071771;28;20020;-57
2024/03/13 02:17:54;;;;;;;3.50;2.05;;;;;;;5.85;100.00;98790.91;5070116;28;20021;-57
2024/03/13 02:20:24;;;;;;;3.22;1.88;;;;;;;5.88;100.00;98781.69;5069593;28;22574;-57
2024/03/13 02:22:52;;;;;;;4.03;1.75;;;;;;;5.82;100.00;98775.16;5071817;28;20083;-57
2024/03/13 02:25:18;;;;;;;2.88;1.52;;;;;;;5.93;100.00;98780.19;5071390;28;20116;-57
2024/03/13 02:27:51;;;;;;;2.90;1.60;;;;;;;5.92;100.00;98781.16;5070390;28;20460;-57
2024/03/13 02:30:18;;;;;;;4.13;2.05;;;;;;;5.94;100.00;98781.00;5071256;28;20059;-58
2024/03/13 02:32:47;;;;;;;5.90;1.80;;;;;;;5.90;100.00;98775.13;5074323;28;20028;-57
2024/03/13 02:35:13;;;;;;;3.08;1.70;;;;;;;5.91;100.00;98775.97;5075066;28;20107;-57
2024/03/13 02:37:42;;;;;;;4.55;1.98;;;;;;;5.92;100.00;98765.06;5075071;28;20035;-57
2024/03/13 02:40:16;;;;;;;4.35;1.60;;;;;;;5.93;100.00;98772.13;5072883;28;20399;-57
2024/03/13 02:42:44;;;;;;;3.75;1.38;;;;;;;5.90;100.00;98761.72;5072074;28;20104;-57
2024/03/13 02:45:09;;;;;;;3.30;1.55;;;;;;;5.87;100.00;98747.81;5073737;28;20024;-57
2024/03/13 02:47:34;;;;;;;2.95;1.70;;;;;;;5.93;100.00;98744.41;5069584;28;20043;-57
2024/03/13 02:50:00;;;;;;;3.65;1.83;;;;;;;5.90;100.00;98756.34;5074068;28;20075;-57
2024/03/13 02:52:26;;;;;;;3.28;1.65;;;;;;;5.92;100.00;98765.06;5072033;28;20024;-59
2024/03/13 02:54:51;;;;;;;3.17;1.90;;;;;;;5.91;100.00;98768.75;5073912;28;20059;-58
2024/03/13 02:57:18;;;;;;;1.95;1.33;;;;;;;5.93;100.00;98765.88;5073066;28;20511;-56
2024/03/13 02:59:44;;;;;;;2.65;1.33;;;;;;;5.91;100.00;98758.00;5074444;28;20522;-56
2024/03/13 03:02:09;;;;;;;4.95;1.02;;;;;;;5.97;100.00;98761.03;5073723;28;20116;-58
2024/03/13 03:04:35;;;;;;;2.15;1.15;;;;;;;5.97;100.00;98763.72;5074191;28;20028;-58
2024/03/13 03:07:01;;;;;;;2.92;1.40;;;;;;;5.95;100.00;98771.09;5072829;28;20111;-58
2024/03/13 03:09:26;;;;;;;2.35;1.50;;;;;;;6.02;100.00;98767.53;5073204;28;20035;-58
2024/03/13 03:11:52;;;;;;;2.00;1.30;;;;;;;5.99;100.00;98762.53;5073844;28;20016;-58
2024/03/13 03:14:17;;;;;;;2.83;1.50;;;;;;;6.09;100.00;98770.38;5069214;28;20033;-58
2024/03/13 03:16:43;;;;;;;3.55;1.65;;;;;;;6.09;100.00;98786.50;5072943;28;20059;-58
2024/03/13 03:19:09;;;;;;;2.88;1.75;;;;;;;6.03;100.00;98784.53;5121518;22;20055;-52
2024/03/13 03:21:34;;;;;;;3.63;1.70;;;;;;;5.98;100.00;98768.09;5092255;28;20495;-52
2024/03/13 03:24:00;;;;;;;4.93;1.90;;;;;;;6.04;100.00;98787.00;5094434;28;20038;-51
2024/03/13 03:26:28;;;;;;;3.33;1.80;;;;;;;6.01;100.00;98782.00;5092773;28;20024;-52
2024/03/13 03:28:54;;;;;;;3.67;1.98;;;;;;;5.97;100.00;98786.03;5070700;28;20036;-50
2024/03/13 03:31:20;;;;;;;3.50;2.08;;;;;;;6.04;100.00;98778.13;5091852;28;20050;-50
2024/03/13 03:33:46;;;;;;;5.78;2.05;;;;;;;6.04;100.00;98778.13;5093338;28;20479;-50
2024/03/13 03:36:14;;;;;;;5.60;2.00;;;;;;;6.00;100.00;98769.59;5089032;28;20023;-49
2024/03/13 03:38:40;;;;;;;4.20;1.60;;;;;;;5.97;100.00;98771.78;5087183;28;20119;-50
2024/03/13 03:41:05;;;;;;;3.33;1.90;;;;;;;5.93;100.00;98777.50;5090365;28;20150;-50
2024/03/13 03:43:30;;;;;;;3.50;2.10;;;;;;;5.91;100.00;98773.28;5086930;28;20025;-51
2024/03/13 03:45:56;;;;;;;4.07;1.88;;;;;;;5.98;100.00;98779.66;5085140;28;20420;-50
2024/03/13 03:48:21;;;;;;;3.70;2.10;;;;;;;5.98;100.00;98781.50;5092179;28;20034;-52
2024/03/13 03:50:47;;;;;;;3.60;1.70;;;;;;;6.01;100.00;98771.25;5084043;28;20020;-51
2024/03/13 03:53:12;;;;;;;3.63;1.77;;;;;;;6.03;100.00;98766.56;5092118;28;20116;-52
2024/03/13 03:55:38;;;;;;;4.10;1.88;;;;;;;6.04;100.00;98784.31;5095970;28;20039;-50
2024/03/13 03:58:06;;;;;;;4.70;1.98;;;;;;;5.95;100.00;98766.59;5088623;28;20035;-52
2024/03/13 04:00:34;;;;;;;5.03;1.33;;;;;;;5.95;100.00;98785.38;5081643;28;20012;-51
2024/03/13 04:03:00;;;;;;;4.38;1.33;;;;;;;5.99;100.00;98780.50;5091183;28;20107;-50
2024/03/13 04:05:27;;;;;;;2.10;1.40;;;;;;;6.00;100.00;98780.34;5088705;28;20359;-50
2024/03/13 04:07:53;;;;;;;3.13;1.55;;;;;;;6.00;100.00;98779.47;5093726;28;20024;-52
2024/03/13 04:10:20;;;;;;;2.80;1.48;;;;;;;6.02;100.00;98770.22;5086847;28;20383;-50
2024/03/13 04:12:46;;;;;;;2.15;1.50;;;;;;;6.01;100.00;98784.69;5088272;28;20055;-50
2024/03/13 04:15:12;;;;;;;1.90;1.35;;;;;;;5.95;100.00;98774.66;5071849;28;20024;-50
2024/03/13 04:17:41;;;;;;;2.67;1.27;;;;;;;6.03;100.00;98777.28;5088758;28;20356;-50
2024/03/13 04:20:18;;;;;;;1.77;1.20;;;;;;;5.98;100.00;98784.19;5088334;28;20458;-50
2024/03/13 04:22:44;;;;;;;2.45;1.30;;;;;;;5.85;100.00;98768.63;5086729;28;20081;-50
2024/03/13 04:25:10;;;;;;;2.42;1.25;;;;;;;5.90;100.00;98788.56;5088213;28;20110;-50
2024/03/13 04:27:37;;;;;;;1.70;1.15;;;;;;;5.93;100.00;98780.19;5092209;28;20020;-50
2024/03/13 04:30:04;;;;;;;1.73;1.15;;;;;;;5.86;100.00;98781.84;5089873;28;20012;-50
2024/03/13 04:32:30;;;;;;;2.65;1.67;;;;;;;5.85;100.00;98777.50;5090317;28;20399;-50
2024/03/13 04:34:57;;;;;;;3.05;1.05;;;;;;;5.88;100.00;98779.84;5088312;28;20024;-51
2024/03/13 04:37:23;;;;;;;2.10;1.00;;;;;;;5.88;100.00;98781.69;5087426;28;20030;-50
2024/03/13 04:39:49;;;;;;;2.97;0.95;;;;;;;5.81;100.00;98767.28;5085843;28;20023;-52
2024/03/13 04:42:15;;;;;;;2.60;1.20;;;;;;;5.86;100.00;98781.84;5085742;28;20020;-52
2024/03/13 04:44:42;;;;;;;1.25;0.88;;;;;;;5.83;100.00;98776.00;5089555;28;20024;-52
2024/03/13 04:47:08;;;;;;;4.10;1.30;;;;;;;5.92;100.00;98785.69;5085746;28;20050;-50
2024/03/13 04:49:35;;;;;;;3.03;1.20;;;;;;;5.91;100.00;98784.84;5091043;28;20471;-52
2024/03/13 04:52:01;;;;;;;1.90;1.25;;;;;;;5.91;100.00;98794.75;5087149;28;20115;-52
2024/03/13 04:54:26;;;;;;;3.15;1.40;;;;;;;5.95;100.00;98806.00;5081685;28;20115;-52
2024/03/13 04:56:52;;;;;;;2.40;1.40;;;;;;;5.95;100.00;98803.31;5087698;28;20027;-52
2024/03/13 04:59:17;;;;;;;3.03;1.38;;;;;;;5.90;100.00;98795.78;5085827;28;20039;-52
2024/03/13 05:01:44;;;;;;;2.45;1.42;;;;;;;5.89;100.00;98794.94;5082646;28;20111;-52
2024/03/13 05:04:10;;;;;;;3.78;1.02;;;;;;;5.99;100.00;98807.34;5073862;28;20451;-52
2024/03/13 05:06:35;;;;;;;2.53;1.70;;;;;;;5.99;100.00;98801.97;5089772;28;20055;-52
2024/03/13 05:09:00;;;;;;;4.50;1.63;;;;;;;5.98;100.00;98805.69;5067076;28;20028;-52
2024/03/13 05:11:26;;;;;;;2.17;1.30;;;;;;;5.93;100.00;98812.41;5089957;28;20118;-52
2024/03/13 05:13:51;;;;;;;1.95;0.95;;;;;;;5.93;100.00;98807.03;5069345;28;20028;-52
2024/03/13 05:16:18;;;;;;;2.67;1.25;;;;;;;5.92;100.00;98816.06;5089621;28;20063;-52
2024/03/13 05:18:44;;;;;;;2.08;1.10;;;;;;;5.91;100.00;98817.06;5087670;28;20097;-52
2024/03/13 05:21:12;;;;;;;2.20;0.80;;;;;;;5.90;100.00;98815.41;5086212;28;20016;-52
2024/03/13 05:23:39;;;;;;;1.60;1.00;;;;;;;5.91;100.00;98808.19;5087635;28;20020;-52
2024/03/13 05:26:04;;;;;;;4.68;1.02;;;;;;;5.87;100.00;98815.75;5089350;28;20421;-52
2024/03/13 05:28:31;;;;;;;1.42;0.95;;;;;;;5.86;100.00;98822.13;5088378;28;20020;-52
2024/03/13 05:30:56;;;;;;;8.07;1.45;;;;;;;5.79;100.00;98825.66;5086240;28;20073;-52
2024/03/13 05:33:22;;;;;;;2.03;1.15;;;;;;;5.80;100.00;98828.19;5092771;28;20036;-52
2024/03/13 05:35:47;;;;;;;3.20;1.05;;;;;;;5.81;100.00;98827.16;5071246;28;20020;-52
2024/03/13 05:38:12;;;;;;;2.22;1.35;;;;;;;5.84;100.00;98834.03;5088463;28;20534;-51
2024/03/13 05:40:38;;;;;;;2.63;1.27;;;;;;;5.88;100.00;98830.84;5088510;28;20103;-51
2024/03/13 05:43:03;;;;;;;3.97;1.40;;;;;;;5.83;100.00;98827.00;5065627;28;21048;-52
2024/03/13 05:45:29;;;;;;;3.47;1.42;;;;;;;5.78;100.00;98824.84;5085965;28;20028;-52
2024/03/13 05:47:54;;;;;;;4.03;2.03;;;;;;;5.86;100.00;98830.19;5091417;28;20030;-51
2024/03/13 05:50:20;;;;;;;2.50;1.60;;;;;;;5.92;100.00;98826.81;5088838;28;20020;-51
2024/03/13 05:52:46;;;;;;;2.55;1.55;;;;;;;5.96;100.00;98850.66;5090755;28;20107;-52
2024/03/13 05:55:14;;;;;;;4.47;1.85;;;;;;;6.00;100.00;98831.34;5086853;28;20017;-52
2024/03/13 05:57:40;;;;;;;2.80;1.40;;;;;;;5.92;100.00;98823.28;5088919;28;20059;-52
2024/03/13 06:00:17;;;;;;;3.60;1.25;;;;;;;6.04;100.00;98831.84;5088441;28;20058;-52
2024/03/13 06:02:43;;;;;;;2.40;1.15;;;;;;;6.05;100.00;98839.72;5068526;28;20030;-51
2024/03/13 06:05:11;;;;;;;3.28;1.65;;;;;;;6.08;100.00;98838.56;5091039;28;20131;-52
2024/03/13 06:07:38;;;;;;;5.38;1.33;;;;;;;6.13;100.00;98828.09;5089547;28;20032;-51
2024/03/13 06:10:10;;;;;;;2.03;1.20;;;;;;;6.19;100.00;98834.63;5087144;28;20028;-51
2024/03/13 06:12:36;;;;;;;5.43;1.70;;;;;;;6.21;100.00;98841.50;5087100;28;20028;-51
2024/03/13 06:15:12;;;;;;;1.58;1.00;;;;;;;6.26;100.00;98838.28;5090453;28;20032;-51
2024/03/13 06:17:37;;;;;;;1.67;1.30;;;;;;;6.23;100.00;98844.00;5091742;28;20101;-52
2024/03/13 06:20:11;;;;;;;3.30;1.40;;;;;;;6.22;100.00;98847.72;5090569;28;20459;-51
2024/03/13 06:22:37;;;;;;;2.05;1.25;;;;;;;6.24;100.00;98843.84;5076062;28;20028;-51
2024/03/13 06:25:06;;;;;;;3.08;1.60;;;;;;;6.31;100.00;98839.47;5082047;28;20035;-51
2024/03/13 06:27:34;;;;;;;4.45;1.50;;;;;;;6.38;100.00;98853.00;5068883;28;20032;-51
2024/03/13 06:30:03;;;;;;;3.60;1.40;;;;;;;6.42;100.00;98857.03;5068359;28;20039;-51
2024/03/13 06:32:29;;;;;;;3.58;1.50;;;;;;;6.46;100.00;98858.34;5091393;28;20028;-51
2024/03/13 06:34:57;;;;;;;4.00;2.17;;;;;;;6.53;100.00;98851.25;5089893;28;20023;-51
2024/03/13 06:37:24;;;;;;;3.38;2.00;;;;;;;6.52;100.00;98848.72;5092408;28;20019;-51
2024/03/13 06:39:58;;;;;;;4.13;1.98;;;;;;;6.46;100.00;98865.56;5081906;28;20020;-51
2024/03/13 06:42:25;;;;;;;2.95;1.80;;;;;;;6.51;100.00;98864.03;5089883;28;20028;-51
2024/03/13 06:44:51;;;;;;;5.18;1.95;;;;;;;6.46;100.00;98858.34;5086185;28;20176;-51
2024/03/13 06:47:17;;;;;;;4.72;2.10;;;;;;;6.52;100.00;98846.91;5088908;28;20030;-51
2024/03/13 06:49:46;;;;;;;3.53;1.80;;;;;;;6.52;100.00;98846.03;5091838;28;20413;-52
2024/03/13 06:52:13;;;;;;;6.13;2.40;;;;;;;6.66;100.00;98858.75;5176959;22;20056;-52
2024/03/13 06:57:09;;;;;;;3.10;2.00;;;;;;;6.80;100.00;98849.91;5093115;28;20051;-59
2024/03/13 07:02:13;;;;;;;5.55;2.55;;;;;;;7.19;100.00;98846.28;5065075;28;20048;-58
2024/03/13 07:10:04;;;;;;;3.83;1.80;;;;;;;7.42;100.00;98842.72;5059133;22;20048;-51
2024/03/13 07:12:29;;;;;;;2.65;2.05;;;;;;;7.51;100.00;98841.63;5108679;27;20039;-52
2024/03/13 07:14:57;;;;;;;4.10;1.30;;;;;;;7.55;100.00;98851.03;5120771;27;20016;-52
2024/03/13 07:17:22;;;;;;;7.28;2.13;;;;;;;7.66;100.00;98847.03;5123922;27;20023;-52
2024/03/13 07:19:48;;;;;;;3.28;1.60;;;;;;;7.80;100.00;98845.38;5119390;27;20027;-52
2024/03/13 07:22:14;;;;;;;1.45;0.93;;;;;;;7.89;100.00;98838.91;5112199;27;20024;-52
2024/03/13 07:24:39;;;;;;;4.47;1.60;;;;;;;7.98;100.00;98832.38;5122941;27;20020;-52
2024/03/13 07:27:05;;;;;;;4.00;1.55;;;;;;;8.11;100.00;98834.41;5117271;27;20427;-52
2024/03/13 07:29:30;;;;;;;2.58;1.50;;;;;;;8.38;100.00;98832.88;5110985;27;20054;-52
2024/03/13 07:31:56;;;;;;;1.80;1.08;;;;;;;8.30;100.00;98838.41;5118830;27;20039;-51
2024/03/13 07:34:21;;;;;;;3.53;1.30;;;;;;;8.42;100.00;98828.00;5108948;27;20039;-52
2024/03/13 07:36:47;;;;;;;1.73;0.88;;;;;;;8.39;100.00;98834.63;5114892;27;20085;-52
2024/03/13 07:39:14;;;;;;;4.82;1.15;;;;;;;8.51;100.00;98833.13;5112165;27;20032;-51
2024/03/13 07:41:40;;;;;;;2.08;0.95;;;;;;;8.44;100.00;98844.84;5123070;27;20420;-51
2024/03/13 07:44:07;;;;;;;0.95;0.82;;;;;;;8.44;100.00;98840.28;5115057;27;20028;-52
2024/03/13 07:46:32;;;;;;;2.60;1.10;;;;;;;8.38;100.00;98846.38;5125032;27;20088;-51
2024/03/13 07:48:58;;;;;;;2.58;1.23;;;;;;;8.37;100.00;98844.72;5116290;27;20027;-52
2024/03/13 07:51:23;;;;;;;2.25;0.95;;;;;;;8.39;100.00;98853.50;5114659;27;20390;-52
2024/03/13 07:53:49;;;;;;;3.13;1.48;;;;;;;8.39;100.00;98848.09;5107139;27;20034;-52
2024/03/13 07:56:14;;;;;;;4.57;1.50;;;;;;;8.43;100.00;98854.75;5111441;27;20106;-52
2024/03/13 07:58:40;;;;;;;3.15;1.50;;;;;;;8.42;100.00;98854.97;5113122;27;20036;-52
2024/03/13 08:01:08;;;;;;;3.25;1.10;;;;;;;8.47;100.00;98856.06;5112227;27;20062;-52
2024/03/13 08:03:33;;;;;;;2.30;1.23;;;;;;;8.46;100.00;98854.41;5108411;27;20062;-52
2024/03/13 08:05:58;;;;;;;2.70;1.38;;;;;;;8.54;100.00;98862.38;5116467;27;20028;-52
2024/03/13 08:08:25;;;;;;;3.92;1.15;;;;;;;8.45;100.00;98855.41;5095539;27;20371;-52
2024/03/13 08:10:50;;;;;;;2.55;1.15;;;;;;;8.49;100.00;98861.28;5114816;27;20027;-52
2024/03/13 08:13:16;;;;;;;1.73;1.40;;;;;;;8.67;100.00;98858.16;5115178;27;20028;-52
2024/03/13 08:15:41;;;;;;;3.35;1.50;;;;;;;8.67;100.00;98868.94;5115600;27;20469;-52
2024/03/13 08:18:14;;;;;;;2.53;1.40;;;;;;;8.70;100.00;98864.03;5107741;27;20058;-54
2024/03/13 08:20:40;;;;;;;1.50;1.10;;;;;;;8.74;100.00;98864.47;5101275;27;20020;-52
2024/03/13 08:23:05;;;;;;;5.13;1.20;;;;;;;8.80;100.00;98871.78;5123045;27;20369;-52
2024/03/13 08:25:31;;;;;;;2.83;1.40;;;;;;;8.70;100.00;98877.50;5118186;27;20030;-52
2024/03/13 08:27:58;;;;;;;1.65;1.27;;;;;;;8.70;100.00;98882.09;5108603;27;20036;-52
2024/03/13 08:30:25;;;;;;;4.20;1.73;;;;;;;8.82;100.00;98879.72;5104805;27;22771;-52
2024/03/13 08:32:53;;;;;;;3.83;1.50;;;;;;;8.88;100.00;98879.81;5114763;27;20047;-53
2024/03/13 08:35:18;;;;;;;3.47;1.60;;;;;;;8.89;100.00;98883.34;5120005;27;20019;-52
2024/03/13 08:37:44;;;;;;;3.58;1.52;;;;;;;8.93;100.00;98882.75;5108185;27;20034;-53
2024/03/13 08:40:11;;;;;;;4.57;1.80;;;;;;;8.87;100.00;98886.22;5100958;27;20023;-53
2024/03/13 08:42:46;;;;;;;3.20;1.70;;;;;;;8.97;100.00;98892.13;5115220;27;20051;-53
2024/03/13 08:45:13;;;;;;;2.17;1.50;;;;;;;9.10;100.00;98893.31;5103629;28;20051;-53
2024/03/13 08:47:39;;;;;;;2.15;1.23;;;;;;;9.16;100.00;98889.84;5108867;27;20436;-52
2024/03/13 08:50:05;;;;;;;2.85;1.40;;;;;;;9.41;100.00;98899.22;5109908;27;20024;-53
2024/03/13 08:52:31;;;;;;;2.45;1.35;;;;;;;9.37;100.00;98903.34;5113936;27;20027;-53
2024/03/13 08:54:57;;;;;;;2.15;1.35;;;;;;;9.27;100.00;98908.22;5112588;27;20027;-53
2024/03/13 08:57:24;;;;;;;2.45;1.48;;;;;;;9.38;100.00;98907.72;5101309;27;20016;-53
2024/03/13 08:59:49;;;;;;;3.35;2.20;;;;;;;9.34;100.00;98911.81;5110327;27;20020;-53
2024/03/13 09:02:15;;;;;;;2.50;1.83;;;;;;;9.26;100.00;98917.34;5104594;27;20019;-53
2024/03/13 09:04:40;;;;;;;4.15;2.22;;;;;;;9.28;100.00;98909.91;5104995;27;20081;-53
2024/03/13 09:07:10;;;;;;;4.03;2.25;;;;;;;9.26;100.00;98917.34;5106729;27;20028;-53
2024/03/13 09:09:36;;;;;;;6.57;2.25;;;;;;;9.30;100.00;98923.19;5108767;28;20024;-53
2024/03/13 09:12:06;;;;;;;1.95;1.50;;;;;;;9.45;100.00;98915.88;5082642;28;21565;-53
2024/03/13 09:14:35;;;;;;;4.43;2.03;;;;;;;9.71;100.00;98923.38;5108203;27;20031;-53
2024/03/13 09:17:00;;;;;;;3.85;1.63;;;;;;;9.84;100.00;98917.25;5106665;27;20046;-53
2024/03/13 09:19:26;;;;;;;7.60;1.73;;;;;;;9.75;100.00;98915.75;5112074;27;20024;-54
2024/03/13 09:21:51;;;;;;;2.60;1.80;;;;;;;9.86;100.00;98929.53;5110348;28;20366;-56
2024/03/13 09:24:16;;;;;;;3.05;1.70;;;;;;;10.01;100.00;98921.34;5112923;27;20028;-53
2024/03/13 09:26:42;;;;;;;4.30;1.70;;;;;;;9.91;100.00;98922.72;5110152;28;20019;-53
2024/03/13 09:29:07;;;;;;;5.45;1.80;;;;;;;9.90;100.00;98929.97;5103927;28;20034;-53
2024/03/13 09:31:38;;;;;;;4.75;2.20;;;;;;;10.02;100.00;98931.09;5116268;28;20031;-53
2024/03/13 09:34:03;;;;;;;1.98;1.73;;;;;;;10.11;100.00;98931.78;5113657;28;20027;-54
2024/03/13 09:36:29;;;;;;;2.78;1.90;;;;;;;10.10;100.00;98940.94;5124803;28;20088;-53
2024/03/13 09:38:54;;;;;;;3.20;1.50;;;;;;;9.93;100.00;98931.44;5110999;28;20020;-53
2024/03/13 09:41:19;;;;;;;5.55;2.40;;;;;;;10.05;100.00;98932.59;5112959;28;20027;-53
2024/03/13 09:43:45;;;;;;;4.43;1.92;;;;;;;9.82;100.00;98944.47;5106221;28;20111;-53
2024/03/13 09:46:13;;;;;;;8.57;2.00;;;;;;;9.81;100.00;98950.06;5098910;28;20030;-53
2024/03/13 09:48:42;;;;;;;2.92;1.67;;;;;;;9.85;100.00;98941.38;5100066;28;20310;-53
2024/03/13 09:51:08;;;;;;;1.98;1.58;;;;;;;9.93;100.00;98934.16;5098841;28;20474;-53
2024/03/13 09:53:35;;;;;;;4.43;1.95;;;;;;;9.94;100.00;98931.25;5090124;28;20368;-53
2024/03/13 09:56:00;;;;;;;2.08;1.50;;;;;;;9.93;100.00;98939.56;5111723;28;20035;-53
2024/03/13 09:58:26;;;;;;;3.30;1.40;;;;;;;10.17;100.00;98938.28;5107283;28;20031;-53
2024/03/13 10:00:53;;;;;;;3.53;1.85;;;;;;;10.14;100.00;98942.22;5110349;28;20038;-53
2024/03/13 10:03:27;;;;;;;3.13;1.90;;;;;;;10.20;100.00;98949.53;5111107;28;20491;-53
2024/03/13 10:06:05;;;;;;;2.85;1.85;;;;;;;10.18;100.00;98948.91;5116635;27;20023;-53
2024/03/13 10:08:32;;;;;;;5.30;1.95;;;;;;;9.98;100.00;98954.19;5110364;27;20020;-53
2024/03/13 10:11:02;;;;;;;1.65;1.30;;;;;;;9.83;100.00;98946.16;5117711;27;20035;-53
2024/03/13 10:13:30;;;;;;;1.95;1.25;;;;;;;9.73;100.00;98961.03;5128176;27;20023;-54
2024/03/13 10:15:57;;;;;;;2.47;1.65;;;;;;;9.88;100.00;98953.69;5117132;27;20072;-54
2024/03/13 10:18:25;;;;;;;3.60;1.98;;;;;;;9.94;100.00;98963.69;5121738;27;20494;-53
2024/03/13 10:20:54;;;;;;;3.78;2.10;;;;;;;10.11;100.00;98953.41;5108197;27;20031;-53
2024/03/13 10:23:22;;;;;;;3.50;2.25;;;;;;;10.26;100.00;98961.44;5108412;27;20031;-54
2024/03/13 10:25:50;;;;;;;3.70;2.00;;;;;;;10.33;100.00;98967.75;5112665;27;20471;-54
2024/03/13 10:28:18;;;;;;;4.28;2.40;;;;;;;10.35;100.00;98956.72;5113755;27;20023;-53
2024/03/13 10:30:47;;;;;;;5.68;2.20;;;;;;;10.43;100.00;98962.00;5112002;27;20019;-54
2024/03/13 10:33:13;;;;;;;4.40;2.13;;;;;;;10.43;100.00;98964.72;5107610;27;20047;-53
2024/03/13 10:35:41;;;;;;;2.35;1.80;;;;;;;10.42;100.00;98953.03;5111760;27;20074;-53
2024/03/13 10:38:10;;;;;;;2.53;1.70;;;;;;;10.30;100.00;98954.63;5120331;27;20051;-53
2024/03/13 10:40:39;;;;;;;3.88;2.30;;;;;;;10.39;100.00;98963.44;5113652;27;20094;-54
2024/03/13 10:43:06;;;;;;;2.67;1.30;;;;;;;10.51;100.00;98964.56;5123691;27;20030;-54
2024/03/13 10:45:32;;;;;;;2.65;1.40;;;;;;;10.73;100.00;98958.00;5111166;27;20489;-54
2024/03/13 10:47:57;;;;;;;2.10;1.15;;;;;;;10.82;100.00;98955.13;5116079;27;20040;-53
2024/03/13 10:50:23;;;;;;;6.22;1.40;;;;;;;10.82;100.00;98949.72;5119344;27;20020;-53
2024/03/13 10:52:48;;;;;;;1.20;1.10;;;;;;;10.60;100.00;98949.81;5118739;27;20027;-53
2024/03/13 10:55:14;;;;;;;1.50;1.23;;;;;;;10.61;100.00;98951.50;5110960;27;20023;-53
2024/03/13 10:57:41;;;;;;;1.70;1.10;;;;;;;10.69;100.00;98958.63;5105755;27;20031;-53
2024/03/13 11:00:18;;;;;;;4.18;1.50;;;;;;;10.78;100.00;98960.09;5105368;27;20035;-53
2024/03/13 11:02:43;;;;;;;1.80;1.40;;;;;;;10.91;100.00;98954.75;5107945;27;20027;-53
2024/03/13 11:05:11;;;;;;;2.83;1.15;;;;;;;11.00;100.00;98944.56;5113237;27;20032;-54
2024/03/13 11:07:38;;;;;;;2.67;1.10;;;;;;;10.93;100.00;98952.69;5109510;27;20398;-54
2024/03/13 11:10:13;;;;;;;2.20;1.00;;;;;;;11.00;100.00;98947.28;5105293;27;20077;-53
2024/03/13 11:12:43;;;;;;;1.55;0.95;;;;;;;11.21;100.00;98949.03;5099762;27;20047;-53
2024/03/13 11:15:12;;;;;;;5.68;1.35;;;;;;;11.16;100.00;98948.78;5116147;27;20038;-54
2024/03/13 11:17:40;;;;;;;1.13;0.90;;;;;;;11.21;100.00;98953.59;5094378;28;20424;-53
2024/03/13 11:20:08;;;;;;;29.73;7.35;;;;;;;11.06;100.00;98942.97;5101623;27;20119;-54
2024/03/13 11:22:35;;;;;;;3.35;1.58;;;;;;;11.12;100.00;98952.97;5115941;27;20023;-53
2024/03/13 11:25:14;;;;;;;6.82;2.78;;;;;;;11.12;100.00;98955.66;5118880;27;20442;-53
2024/03/13 11:27:49;;;;;;;5.15;1.92;;;;;;;10.99;100.00;98944.78;5124233;27;20034;-53
2024/03/13 11:30:20;;;;;;;5.57;1.23;;;;;;;11.27;100.00;98950.94;5114507;27;20046;-53
2024/03/13 11:32:48;;;;;;;2.85;1.00;;;;;;;11.17;100.00;98959.44;5117980;27;20462;-53
2024/03/13 11:35:16;;;;;;;1.10;0.93;;;;;;;11.11;100.00;98959.44;5119954;27;20027;-53
2024/03/13 11:37:44;;;;;;;3.83;1.30;;;;;;;10.99;100.00;98961.88;5102095;27;20024;-53
2024/03/13 11:40:10;;;;;;;3.08;1.30;;;;;;;10.94;100.00;98957.06;5118544;27;20031;-53
2024/03/13 11:42:36;;;;;;;1.42;1.25;;;;;;;10.81;100.00;98958.88;5110169;28;20030;-53
2024/03/13 11:45:18;;;;;;;1.60;1.38;;;;;;;11.01;100.00;98957.09;5122883;27;20023;-53
2024/03/13 11:47:48;;;;;;;3.05;1.30;;;;;;;11.09;100.00;98956.09;5110920;27;20047;-53
2024/03/13 11:50:13;;;;;;;;;;;;;;;11.22;100.00;98958.84;5117680;27;20038;-53
2024/03/13 11:53:06;;;;;;;10.05;4.47;;;;;;;11.10;100.00;98949.63;5111570;27;19916;-53
2024/03/13 11:55:34;;;;;;;4.50;2.83;;;;;;;10.90;100.00;98949.56;5097054;27;20036;-52
2024/03/13 11:58:19;;;;;;;10.87;3.60;;;;;;;10.91;100.00;98956.63;5106380;27;20359;-52
2024/03/13 12:00:46;;;;;;;10.27;3.58;;;;;;;10.93;100.00;98955.41;5104011;27;20278;-52